createdAt,value
2023-05-09T00:01:37.380Z,101463.00
2023-05-09T00:04:05.049Z,101467.00
2023-05-09T00:06:32.661Z,101450.00
2023-05-09T00:09:00.284Z,101453.00
2023-05-09T00:11:48.737Z,101443.00
2023-05-09T00:14:16.148Z,101435.00
2023-05-09T00:16:44.637Z,101439.00
2023-05-09T00:19:13.271Z,101437.00
2023-05-09T00:21:40.752Z,101424.00
2023-05-09T00:24:08.287Z,101415.00
2023-05-09T00:26:54.335Z,101414.00
2023-05-09T00:29:42.930Z,101401.00
2023-05-09T00:32:11.076Z,101403.00
2023-05-09T00:34:38.431Z,101388.00
2023-05-09T00:37:06.502Z,101384.00
2023-05-09T00:39:33.754Z,101391.00
2023-05-09T00:42:01.103Z,101388.00
2023-05-09T00:44:28.400Z,101394.00
2023-05-09T00:46:55.874Z,101401.00
2023-05-09T00:49:23.218Z,101397.00
2023-05-09T00:51:51.076Z,101395.00
2023-05-09T00:54:18.685Z,101394.00
2023-05-09T00:56:46.323Z,101397.00
2023-05-09T00:59:17.554Z,101402.00
2023-05-09T01:01:46.287Z,101391.00
2023-05-09T01:04:15.627Z,101393.00
2023-05-09T01:07:18.403Z,101391.00
2023-05-09T01:10:19.276Z,101388.00
2023-05-09T01:13:07.418Z,101381.00
2023-05-09T01:15:49.651Z,101373.00
2023-05-09T01:18:56.403Z,101367.00
2023-05-09T01:21:33.537Z,101366.00
2023-05-09T01:24:48.238Z,101372.00
2023-05-09T01:27:45.362Z,101362.00
2023-05-09T01:30:14.376Z,101357.00
2023-05-09T01:32:44.189Z,101344.00
2023-05-09T01:35:51.526Z,101357.00
2023-05-09T01:38:24.182Z,101338.00
2023-05-09T01:40:57.239Z,101341.00
2023-05-09T01:43:29.501Z,101337.00
2023-05-09T01:45:59.558Z,101348.00
2023-05-09T01:48:31.049Z,101355.00
2023-05-09T01:51:01.473Z,101349.00
2023-05-09T01:53:33.772Z,101341.00
2023-05-09T01:56:04.341Z,101342.00
2023-05-09T01:58:34.268Z,101343.00
2023-05-09T02:01:03.466Z,101337.00
2023-05-09T02:03:55.374Z,101329.00
2023-05-09T02:06:24.963Z,101319.00
2023-05-09T02:08:52.636Z,101328.00
2023-05-09T02:11:20.090Z,101324.00
2023-05-09T02:13:47.485Z,101326.00
2023-05-09T02:16:15.502Z,101325.00
2023-05-09T02:18:42.807Z,101333.00
2023-05-09T02:21:10.242Z,101323.00
2023-05-09T02:23:40.066Z,101325.00
2023-05-09T02:26:07.480Z,101324.00
2023-05-09T02:28:36.340Z,101327.00
2023-05-09T02:31:08.617Z,101317.00
2023-05-09T02:33:58.334Z,101317.00
2023-05-09T02:36:26.126Z,101321.00
2023-05-09T02:38:54.054Z,101324.00
2023-05-09T02:41:22.045Z,101320.00
2023-05-09T02:43:49.392Z,101320.00
2023-05-09T02:46:16.814Z,101314.00
2023-05-09T02:49:02.888Z,101316.00
2023-05-09T02:51:30.195Z,101314.00
2023-05-09T02:53:57.877Z,101317.00
2023-05-09T02:56:25.104Z,101315.00
2023-05-09T02:58:52.549Z,101323.00
2023-05-09T03:01:19.944Z,101324.00
2023-05-09T03:03:47.317Z,101311.00
2023-05-09T03:06:14.779Z,101300.00
2023-05-09T03:08:41.977Z,101301.00
2023-05-09T03:11:09.222Z,101301.00
2023-05-09T03:13:36.444Z,101297.00
2023-05-09T03:16:03.920Z,101288.00
2023-05-09T03:18:31.225Z,101280.00
2023-05-09T03:20:58.580Z,101282.00
2023-05-09T03:23:25.811Z,101288.00
2023-05-09T03:25:53.099Z,101285.00
2023-05-09T03:28:20.311Z,101272.00
2023-05-09T03:30:47.559Z,101278.00
2023-05-09T03:33:14.897Z,101287.00
2023-05-09T03:35:42.178Z,101283.00
2023-05-09T03:38:10.073Z,101282.00
2023-05-09T03:40:38.113Z,101278.00
2023-05-09T03:43:06.843Z,101268.00
2023-05-09T03:45:36.276Z,101275.00
2023-05-09T03:48:05.501Z,101269.00
2023-05-09T03:50:33.058Z,101262.00
2023-05-09T03:53:00.568Z,101261.00
2023-05-09T03:55:27.925Z,101254.00
2023-05-09T03:57:56.060Z,101259.00
2023-05-09T04:00:24.498Z,101260.00
2023-05-09T04:02:51.997Z,101250.00
2023-05-09T04:05:19.559Z,101257.00
2023-05-09T04:07:46.927Z,101253.00
2023-05-09T04:10:14.274Z,101236.00
2023-05-09T04:12:41.652Z,101245.00
2023-05-09T04:15:10.174Z,101239.00
2023-05-09T04:17:37.539Z,101229.00
2023-05-09T04:20:06.828Z,101240.00
2023-05-09T04:22:34.202Z,101240.00
2023-05-09T04:25:01.338Z,101240.00
2023-05-09T04:27:28.562Z,101242.00
2023-05-09T04:29:55.883Z,101241.00
2023-05-09T04:32:23.506Z,101228.00
2023-05-09T04:34:50.836Z,101238.00
2023-05-09T04:37:18.524Z,101241.00
2023-05-09T04:39:45.831Z,101232.00
2023-05-09T04:42:13.248Z,101227.00
2023-05-09T04:44:40.801Z,101223.00
2023-05-09T04:47:07.918Z,101225.00
2023-05-09T04:49:35.176Z,101226.00
2023-05-09T04:52:05.635Z,101225.00
2023-05-09T04:54:33.053Z,101217.00
2023-05-09T04:57:09.837Z,101221.00
2023-05-09T04:59:44.173Z,101214.00
2023-05-09T05:02:11.377Z,101208.00
2023-05-09T05:04:41.652Z,101209.00
2023-05-09T05:07:08.910Z,101214.00
2023-05-09T05:10:35.489Z,101211.00
2023-05-09T05:13:02.899Z,101200.00
2023-05-09T05:15:30.219Z,101190.00
2023-05-09T05:17:57.502Z,101185.00
2023-05-09T05:20:25.013Z,101187.00
2023-05-09T05:22:52.151Z,101197.00
2023-05-09T05:25:19.422Z,101196.00
2023-05-09T05:27:46.868Z,101178.00
2023-05-09T05:30:15.967Z,101187.00
2023-05-09T05:32:44.185Z,101173.00
2023-05-09T05:35:12.188Z,101180.00
2023-05-09T05:37:41.129Z,101167.00
2023-05-09T05:40:09.524Z,101173.00
2023-05-09T05:42:37.104Z,101163.00
2023-05-09T05:45:04.890Z,101163.00
2023-05-09T05:47:36.130Z,101158.00
2023-05-09T05:50:12.244Z,101158.00
2023-05-09T05:52:41.697Z,101150.00
2023-05-09T05:55:09.439Z,101151.00
2023-05-09T05:57:39.794Z,101150.00
2023-05-09T06:00:14.943Z,101138.00
2023-05-09T06:02:45.715Z,101146.00
2023-05-09T06:05:13.377Z,101140.00
2023-05-09T06:07:44.442Z,101151.00
2023-05-09T06:10:12.000Z,101151.00
2023-05-09T06:12:39.344Z,101138.00
2023-05-09T06:15:07.499Z,101145.00
2023-05-09T06:17:35.391Z,101125.00
2023-05-09T06:20:06.176Z,101121.00
2023-05-09T06:22:33.562Z,101118.00
2023-05-09T06:25:01.288Z,101109.00
2023-05-09T06:27:28.497Z,101112.00
2023-05-09T06:29:55.755Z,101112.00
2023-05-09T06:32:23.724Z,101114.00
2023-05-09T06:34:51.172Z,101110.00
2023-05-09T06:37:18.865Z,101104.00
2023-05-09T06:39:46.543Z,101100.00
2023-05-09T06:42:13.797Z,101096.00
2023-05-09T06:44:41.489Z,101087.00
2023-05-09T06:47:08.815Z,101093.00
2023-05-09T06:49:36.212Z,101092.00
2023-05-09T06:52:03.582Z,101090.00
2023-05-09T06:54:31.975Z,101081.00
2023-05-09T06:57:00.116Z,101074.00
2023-05-09T06:59:28.029Z,101072.00
2023-05-09T07:01:56.045Z,101062.00
2023-05-09T07:04:23.558Z,101066.00
2023-05-09T07:06:51.173Z,101053.00
2023-05-09T07:09:20.751Z,101065.00
2023-05-09T07:11:48.001Z,101057.00
2023-05-09T07:14:15.277Z,101058.00
2023-05-09T07:16:42.574Z,101060.00
2023-05-09T07:19:09.945Z,101048.00
2023-05-09T07:21:37.474Z,101049.00
2023-05-09T07:24:05.042Z,101045.00
2023-05-09T07:26:32.452Z,101034.00
2023-05-09T07:28:59.720Z,101038.00
2023-05-09T07:31:27.120Z,101037.00
2023-05-09T07:33:54.502Z,101023.00
2023-05-09T07:36:21.969Z,101025.00
2023-05-09T07:38:53.570Z,101013.00
2023-05-09T07:41:21.054Z,101024.00
2023-05-09T07:43:48.489Z,101008.00
2023-05-09T07:46:15.896Z,101019.00
2023-05-09T07:48:43.817Z,101003.00
2023-05-09T07:51:11.188Z,101012.00
2023-05-09T07:53:38.451Z,101010.00
2023-05-09T07:56:07.007Z,101005.00
2023-05-09T07:58:34.379Z,101002.00
2023-05-09T08:01:02.055Z,100997.00
2023-05-09T08:03:32.165Z,100981.00
2023-05-09T08:05:59.688Z,100993.00
2023-05-09T08:08:30.561Z,100985.00
2023-05-09T08:10:58.548Z,100983.00
2023-05-09T08:13:26.495Z,100968.00
2023-05-09T08:15:53.936Z,100983.00
2023-05-09T08:18:21.358Z,100979.00
2023-05-09T08:20:48.705Z,100970.00
2023-05-09T08:23:15.921Z,100958.00
2023-05-09T08:25:43.436Z,100955.00
2023-05-09T08:28:10.984Z,100953.00
2023-05-09T08:30:38.356Z,100951.00
2023-05-09T08:33:05.650Z,100957.00
2023-05-09T08:35:35.188Z,100956.00
2023-05-09T08:38:02.652Z,100953.00
2023-05-09T08:40:30.079Z,100946.00
2023-05-09T08:42:57.580Z,100941.00
2023-05-09T08:45:30.557Z,100948.00
2023-05-09T08:47:59.366Z,100932.00
2023-05-09T08:50:26.856Z,100944.00
2023-05-09T08:52:54.675Z,100943.00
2023-05-09T08:55:22.597Z,100931.00
2023-05-09T08:57:54.894Z,100928.00
2023-05-09T09:00:22.872Z,100928.00
2023-05-09T09:02:51.262Z,100928.00
2023-05-09T09:05:39.558Z,100944.00
2023-05-09T09:08:09.218Z,100937.00
2023-05-09T09:10:41.600Z,100940.00
2023-05-09T09:13:10.836Z,100938.00
2023-05-09T09:15:40.684Z,100933.00
2023-05-09T09:18:10.422Z,100936.00
2023-05-09T09:21:06.546Z,100928.00
2023-05-09T09:23:34.330Z,100920.00
2023-05-09T09:26:05.118Z,100924.00
2023-05-09T09:28:34.707Z,100927.00
2023-05-09T09:31:02.475Z,100919.00
2023-05-09T09:33:30.262Z,100916.00
2023-05-09T09:35:59.507Z,100907.00
2023-05-09T09:38:27.167Z,100915.00
2023-05-09T09:40:59.363Z,100915.00
2023-05-09T09:43:32.035Z,100916.00
2023-05-09T09:46:04.708Z,100914.00
2023-05-09T09:48:35.215Z,100914.00
2023-05-09T09:51:12.986Z,100899.00
2023-05-09T09:54:02.853Z,100898.00
2023-05-09T09:57:08.712Z,100897.00
2023-05-09T09:59:35.990Z,100890.00
2023-05-09T10:02:08.404Z,100889.00
2023-05-09T10:04:39.345Z,100883.00
2023-05-09T10:07:13.881Z,100888.00
2023-05-09T10:09:44.194Z,100876.00
2023-05-09T10:12:12.288Z,100877.00
2023-05-09T10:14:43.659Z,100874.00
2023-05-09T10:17:16.219Z,100881.00
2023-05-09T10:19:48.011Z,100879.00
2023-05-09T10:22:18.290Z,100864.00
2023-05-09T10:25:06.987Z,100880.00
2023-05-09T10:27:40.423Z,100877.00
2023-05-09T10:30:14.121Z,100866.00
2023-05-09T10:33:09.380Z,100864.00
2023-05-09T10:35:50.337Z,100855.00
2023-05-09T10:38:19.263Z,100864.00
2023-05-09T10:40:48.385Z,100863.00
2023-05-09T10:43:16.185Z,100848.00
2023-05-09T10:46:04.191Z,100859.00
2023-05-09T10:48:34.300Z,100858.00
2023-05-09T10:51:06.209Z,100845.00
2023-05-09T10:53:48.854Z,100847.00
2023-05-09T10:56:40.110Z,100839.00
2023-05-09T10:59:37.932Z,100834.00
2023-05-09T11:02:11.718Z,100838.00
2023-05-09T11:04:40.777Z,100822.00
2023-05-09T11:07:27.690Z,100811.00
2023-05-09T11:10:18.678Z,100812.00
2023-05-09T11:13:00.734Z,100822.00
2023-05-09T11:15:29.245Z,100816.00
2023-05-09T11:18:11.168Z,100808.00
2023-05-09T11:20:48.437Z,100818.00
2023-05-09T11:23:27.214Z,100817.00
2023-05-09T11:26:05.751Z,100805.00
2023-05-09T11:28:38.991Z,100812.00
2023-05-09T11:31:11.574Z,100806.00
2023-05-09T11:33:40.404Z,100806.00
2023-05-09T11:36:28.214Z,100802.00
2023-05-09T11:39:08.270Z,100800.00
2023-05-09T11:41:47.339Z,100794.00
2023-05-09T11:44:21.089Z,100786.00
2023-05-09T11:46:50.066Z,100797.00
2023-05-09T11:49:19.809Z,100776.00
2023-05-09T11:51:47.495Z,100775.00
2023-05-09T11:54:15.268Z,100788.00
2023-05-09T11:56:43.483Z,100788.00
2023-05-09T11:59:13.422Z,100796.00
2023-05-09T12:01:40.897Z,100779.00
2023-05-09T12:04:09.258Z,100789.00
2023-05-09T12:06:37.864Z,100787.00
2023-05-09T12:09:05.334Z,100783.00
2023-05-09T12:11:32.623Z,100781.00
2023-05-09T12:14:00.088Z,100775.00
2023-05-09T12:16:27.692Z,100781.00
2023-05-09T12:18:55.192Z,100775.00
2023-05-09T12:21:23.108Z,100772.00
2023-05-09T12:23:52.539Z,100783.00
2023-05-09T12:26:22.992Z,100774.00
2023-05-09T12:28:52.118Z,100770.00
2023-05-09T12:31:19.741Z,100766.00
2023-05-09T12:33:47.480Z,100768.00
2023-05-09T12:36:16.202Z,100767.00
2023-05-09T12:38:56.798Z,100772.00
2023-05-09T12:43:55.733Z,100757.00
2023-05-09T12:46:23.179Z,100760.00
2023-05-09T12:48:50.602Z,100765.00
2023-05-09T12:51:22.325Z,100756.00
2023-05-09T12:53:49.875Z,100745.00
2023-05-09T12:56:23.691Z,100753.00
2023-05-09T12:59:15.510Z,100750.00
2023-05-09T13:01:42.827Z,100756.00
2023-05-09T13:04:12.641Z,100755.00
2023-05-09T13:06:54.249Z,100748.00
2023-05-09T13:09:23.442Z,100749.00
2023-05-09T13:11:52.948Z,100750.00
2023-05-09T13:15:17.359Z,100748.00
2023-05-09T13:18:21.671Z,100771.00
2023-05-09T13:20:53.120Z,100750.00
2023-05-09T13:23:20.778Z,100760.00
2023-05-09T13:25:48.586Z,100733.00
2023-05-09T13:28:27.132Z,100752.00
2023-05-09T13:31:04.998Z,100742.00
2023-05-09T13:33:33.292Z,100741.00
2023-05-09T13:36:01.001Z,100744.00
2023-05-09T13:38:31.331Z,100724.00
2023-05-09T13:41:00.064Z,100731.00
2023-05-09T13:43:28.490Z,100724.00
2023-05-09T13:45:58.165Z,100725.00
2023-05-09T13:48:28.951Z,100730.00
2023-05-09T13:50:57.929Z,100714.00
2023-05-09T13:53:25.305Z,100723.00
2023-05-09T13:55:55.089Z,100709.00
2023-05-09T13:58:25.827Z,100714.00
2023-05-09T14:00:56.270Z,100716.00
2023-05-09T14:06:10.655Z,100693.00
2023-05-09T14:08:45.260Z,100697.00
2023-05-09T14:11:12.861Z,100700.00
2023-05-09T14:13:44.602Z,100697.00
2023-05-09T14:16:12.150Z,100692.00
2023-05-09T14:18:42.913Z,100683.00
2023-05-09T14:21:29.444Z,100689.00
2023-05-09T14:23:56.894Z,100682.00
2023-05-09T14:26:26.908Z,100679.00
2023-05-09T14:29:33.219Z,100684.00
2023-05-09T14:32:01.229Z,100664.00
2023-05-09T14:34:31.218Z,100664.00
2023-05-09T14:36:58.724Z,100670.00
2023-05-09T14:39:29.357Z,100658.00
2023-05-09T14:41:57.144Z,100668.00
2023-05-09T14:44:25.345Z,100660.00
2023-05-09T14:46:52.842Z,100654.00
2023-05-09T14:49:20.572Z,100648.00
2023-05-09T14:51:48.716Z,100646.00
2023-05-09T14:54:16.275Z,100643.00
2023-05-09T14:56:44.932Z,100630.00
2023-05-09T14:59:12.296Z,100644.00
2023-05-09T15:01:39.894Z,100644.00
2023-05-09T15:04:31.092Z,100639.00
2023-05-09T15:06:59.264Z,100644.00
2023-05-09T15:09:34.771Z,100645.00
2023-05-09T15:12:02.229Z,100618.00
2023-05-09T15:14:29.681Z,100629.00
2023-05-09T15:17:09.392Z,100632.00
2023-05-09T15:19:38.171Z,100634.00
2023-05-09T15:22:06.297Z,100620.00
2023-05-09T15:24:33.857Z,100623.00
2023-05-09T15:27:43.042Z,100616.00
2023-05-09T15:30:11.261Z,100618.00
2023-05-09T15:36:41.701Z,100622.00
2023-05-09T15:39:10.085Z,100616.00
2023-05-09T15:41:37.398Z,100619.00
2023-05-09T15:44:05.004Z,100609.00
2023-05-09T15:46:32.827Z,100611.00
2023-05-09T15:49:02.654Z,100603.00
2023-05-09T15:51:33.539Z,100598.00
2023-05-09T15:54:01.390Z,100598.00
2023-05-09T15:56:28.981Z,100593.00
2023-05-09T15:59:03.003Z,100568.00
2023-05-09T16:01:30.567Z,100583.00
2023-05-09T16:04:01.802Z,100574.00
2023-05-09T16:06:29.626Z,100566.00
2023-05-09T16:09:43.667Z,100565.00
2023-05-09T16:12:13.910Z,100574.00
2023-05-09T16:14:44.844Z,100566.00
2023-05-09T16:17:17.305Z,100570.00
2023-05-09T16:19:45.201Z,100569.00
2023-05-09T16:22:13.208Z,100563.00
2023-05-09T16:24:45.934Z,100569.00
2023-05-09T16:27:14.715Z,100560.00
2023-05-09T16:29:45.475Z,100567.00
2023-05-09T16:32:13.625Z,100566.00
2023-05-09T16:34:41.409Z,100556.00
2023-05-09T16:37:16.323Z,100549.00
2023-05-09T16:39:44.061Z,100549.00
2023-05-09T16:42:14.074Z,100531.00
2023-05-09T16:44:44.306Z,100542.00
2023-05-09T16:47:25.633Z,100530.00
2023-05-09T16:49:55.564Z,100540.00
2023-05-09T16:52:25.799Z,100534.00
2023-05-09T16:54:55.014Z,100528.00
2023-05-09T16:57:22.944Z,100517.00
2023-05-09T17:00:01.226Z,100519.00
2023-05-09T17:02:29.097Z,100529.00
2023-05-09T17:04:58.913Z,100523.00
2023-05-09T17:07:29.480Z,100515.00
2023-05-09T17:09:57.066Z,100530.00
2023-05-09T17:12:25.786Z,100528.00
2023-05-09T17:14:56.276Z,100517.00
2023-05-09T17:17:27.661Z,100514.00
2023-05-09T17:19:55.485Z,100531.00
2023-05-09T17:22:23.492Z,100521.00
2023-05-09T17:24:50.865Z,100524.00
2023-05-09T17:27:18.557Z,100509.00
2023-05-09T17:29:46.227Z,100513.00
2023-05-09T17:32:22.779Z,100515.00
2023-05-09T17:34:57.456Z,100502.00
2023-05-09T17:37:26.052Z,100505.00
2023-05-09T17:39:53.577Z,100508.00
2023-05-09T17:42:58.538Z,100510.00
2023-05-09T17:45:26.099Z,100510.00
2023-05-09T17:47:54.140Z,100518.00
2023-05-09T17:50:21.714Z,100511.00
2023-05-09T17:52:49.774Z,100517.00
2023-05-09T17:55:17.253Z,100514.00
2023-05-09T17:57:44.851Z,100511.00
2023-05-09T18:00:13.115Z,100515.00
2023-05-09T18:02:44.092Z,100516.00
2023-05-09T18:05:11.531Z,100520.00
2023-05-09T18:07:40.552Z,100510.00
2023-05-09T18:10:09.730Z,100517.00
2023-05-09T18:12:37.487Z,100521.00
2023-05-09T18:15:06.179Z,100517.00
2023-05-09T18:17:33.530Z,100518.00
2023-05-09T18:20:04.999Z,100511.00
2023-05-09T18:22:34.650Z,100514.00
2023-05-09T18:25:02.198Z,100512.00
2023-05-09T18:27:29.536Z,100500.00
2023-05-09T18:29:57.218Z,100516.00
2023-05-09T18:32:27.781Z,100510.00
2023-05-09T18:34:58.061Z,100509.00
2023-05-09T18:37:28.244Z,100508.00
2023-05-09T18:39:58.656Z,100507.00
2023-05-09T18:42:26.179Z,100517.00
2023-05-09T18:44:53.406Z,100506.00
2023-05-09T18:47:20.878Z,100511.00
2023-05-09T18:49:48.322Z,100512.00
2023-05-09T18:52:18.960Z,100509.00
2023-05-09T18:54:46.279Z,100518.00
2023-05-09T18:57:13.574Z,100508.00
2023-05-09T18:59:43.451Z,100512.00
2023-05-09T19:02:10.810Z,100521.00
2023-05-09T19:04:38.317Z,100520.00
2023-05-09T19:07:05.804Z,100518.00
2023-05-09T19:09:33.865Z,100510.00
2023-05-09T19:12:04.908Z,100510.00
2023-05-09T19:14:32.613Z,100519.00
2023-05-09T19:17:06.484Z,100509.00
2023-05-09T19:19:34.762Z,100511.00
2023-05-09T19:22:02.370Z,100520.00
2023-05-09T19:24:32.992Z,100521.00
2023-05-09T19:27:00.437Z,100521.00
2023-05-09T19:29:28.584Z,100512.00
2023-05-09T19:31:56.505Z,100520.00
2023-05-09T19:34:24.852Z,100515.00
2023-05-09T19:36:52.355Z,100521.00
2023-05-09T19:39:19.864Z,100521.00
2023-05-09T19:41:47.276Z,100532.00
2023-05-09T19:44:17.577Z,100525.00
2023-05-09T19:46:45.071Z,100510.00
2023-05-09T19:49:13.029Z,100530.00
2023-05-09T19:51:40.783Z,100524.00
2023-05-09T19:54:08.863Z,100530.00
2023-05-09T19:56:39.033Z,100506.00
2023-05-09T19:59:06.593Z,100525.00
2023-05-09T20:01:37.411Z,100521.00
2023-05-09T20:04:05.228Z,100518.00
2023-05-09T20:06:32.812Z,100521.00
2023-05-09T20:09:02.601Z,100517.00
2023-05-09T20:11:29.939Z,100519.00
2023-05-09T20:14:00.712Z,100519.00
2023-05-09T20:16:31.425Z,100518.00
2023-05-09T20:18:59.855Z,100517.00
2023-05-09T20:21:28.138Z,100512.00
2023-05-09T20:23:55.457Z,100513.00
2023-05-09T20:26:25.985Z,100514.00
2023-05-09T20:28:59.164Z,100504.00
2023-05-09T20:31:26.626Z,100517.00
2023-05-09T20:33:54.891Z,100513.00
2023-05-09T20:36:22.400Z,100503.00
2023-05-09T20:38:49.708Z,100519.00
2023-05-09T20:41:19.487Z,100505.00
2023-05-09T20:43:47.326Z,100510.00
2023-05-09T20:46:17.550Z,100507.00
2023-05-09T20:48:44.932Z,100512.00
2023-05-09T20:51:15.138Z,100502.00
2023-05-09T20:53:44.934Z,100508.00
2023-05-09T20:56:12.426Z,100509.00
2023-05-09T20:58:39.766Z,100508.00
2023-05-09T21:01:07.299Z,100505.00
2023-05-09T21:03:34.922Z,100502.00
2023-05-09T21:06:02.483Z,100511.00
2023-05-09T21:08:29.793Z,100495.00
2023-05-09T21:11:00.580Z,100504.00
2023-05-09T21:13:31.268Z,100507.00
2023-05-09T21:15:58.676Z,100508.00
2023-05-09T21:18:28.997Z,100518.00
2023-05-09T21:20:56.418Z,100524.00
2023-05-09T21:23:23.761Z,100508.00
2023-05-09T21:25:50.997Z,100511.00
2023-05-09T21:28:18.481Z,100508.00
2023-05-09T21:30:52.525Z,100515.00
2023-05-09T21:33:22.925Z,100516.00
2023-05-09T21:35:50.427Z,100507.00
2023-05-09T21:38:17.782Z,100515.00
2023-05-09T21:40:45.036Z,100505.00
2023-05-09T21:43:12.414Z,100513.00
2023-05-09T21:45:39.767Z,100513.00
2023-05-09T21:48:07.228Z,100512.00
2023-05-09T21:50:34.706Z,100504.00
2023-05-09T21:53:02.233Z,100491.00
2023-05-09T21:55:29.701Z,100507.00
2023-05-09T21:57:57.026Z,100496.00
2023-05-09T22:00:24.948Z,100489.00
2023-05-09T22:02:52.792Z,100494.00
2023-05-09T22:05:20.412Z,100497.00
2023-05-09T22:07:47.589Z,100490.00
2023-05-09T22:10:15.310Z,100484.00
2023-05-09T22:12:43.106Z,100505.00
2023-05-09T22:15:13.411Z,100493.00
2023-05-09T22:17:40.744Z,100487.00
2023-05-09T22:20:09.510Z,100496.00
2023-05-09T22:22:37.116Z,100504.00
2023-05-09T22:25:05.713Z,100500.00
2023-05-09T22:27:33.085Z,100501.00
2023-05-09T22:30:00.471Z,100499.00
2023-05-09T22:32:28.280Z,100495.00
2023-05-09T22:34:55.826Z,100488.00
2023-05-09T22:37:23.076Z,100501.00
2023-05-09T22:39:50.381Z,100497.00
2023-05-09T22:42:20.165Z,100516.00
2023-05-09T22:44:49.908Z,100507.00
2023-05-09T22:47:17.283Z,100494.00
2023-05-09T22:49:45.879Z,100512.00
2023-05-09T22:52:13.727Z,100514.00
2023-05-09T22:54:41.148Z,100508.00
2023-05-09T22:57:08.716Z,100502.00
2023-05-09T22:59:37.116Z,100502.00
2023-05-09T23:02:05.202Z,100508.00
2023-05-09T23:04:32.600Z,100519.00
2023-05-09T23:07:00.004Z,100510.00
2023-05-09T23:09:27.391Z,100510.00
2023-05-09T23:11:55.235Z,100517.00
2023-05-09T23:14:22.508Z,100528.00
2023-05-09T23:16:50.891Z,100515.00
2023-05-09T23:19:18.151Z,100521.00
2023-05-09T23:21:45.576Z,100520.00
2023-05-09T23:24:12.804Z,100513.00
2023-05-09T23:26:40.089Z,100527.00
2023-05-09T23:29:07.472Z,100515.00
2023-05-09T23:31:34.894Z,100519.00
2023-05-09T23:34:02.444Z,100515.00
2023-05-09T23:36:29.760Z,100519.00
2023-05-09T23:38:57.694Z,100518.00
2023-05-09T23:41:25.031Z,100509.00
2023-05-09T23:43:52.480Z,100519.00
2023-05-09T23:46:19.952Z,100516.00
2023-05-09T23:48:47.248Z,100510.00
2023-05-09T23:51:14.685Z,100516.00
2023-05-09T23:53:42.006Z,100500.00
2023-05-09T23:56:09.793Z,100507.00
2023-05-09T23:58:37.020Z,100498.00
